Startpagina
METAR-TAF:

METAR-TAF

Vliegvelden :

Aeropuerto Internacional de Maiquetía Simón Bolívar

Caracas, Venezuela

breedte: 10-36N, lengte: 066-59W, hoogte: 43 m

Actueel weer

Dit bericht is 13 minuten geleden gemaakt, om 18:00 UTC
Wind 5 kt uit het oostnoordoosten
Temperatuur 27°C
Vochtigheid 66%
Druk 1013 hPa
Zicht 10 km of meer
Verspreide wolken op 1600 ft

METAR: SVMI 181800Z 07005KT 9999 SCT016 27/20 Q1013

Tijdstip: 14:13 (18:13 UTC)

Verwachting

Dit bericht is 2 uur en het 13 minuten geleden gemaakt, om 16:00 UTC
Verwachting geldig van 18 om 18 UTC tot 19 om 18 UTC
Wind 13 kt uit het oosten
Zicht 10 km of meer
Gebroken wolken op 1600 ft
Wijzigt naar
van 18 om 18 UTC tot 18 om 23 UTC
Wind 10 kt uit het oosten
Verspreide wolken op 1600 ft

TAF: SVMI 181600Z 1818/1918 09013KT 9999 BKN016 TX31/18Z TN24/09Z BECMG 1818/1823 09010KT SCT016

Waarnemingen en weersverwachtingen van meer dan 4000 vliegvelden (METAR en TAF).

De beschikbare stations zijn de gele en rode punten op de kaart.

Ga met uw muis naar het station om de naam te zien.

Klik dan om waarnemingen en weersverwachtingen te zien.

kaart wijzigen: klik op de groene knoppen met een zwart kruis om in te zoomen, op de groene knop met een streepje om uit te zoomen of op de groene pijlen voor aangrenzende kaarten.


METAR-TAF: